Time;durP1;ratioP1;P1;durP2;ratioP2;P2;SDS_P1;SDS_P2;PMS_P1;PMS_P2;Temp;Humidity;BMP_temperature;BMP_pressure;BME280_temperature;BME280_humidity;BME280_pressure;Samples;Min_cycle;Max_cycle;Signal;HPM_P1;HPM_P2
2021/10/21 21:13:14;;;;;;;;;4.00;4.00;;;;;;;;5044215;27;45598;-78
2021/10/21 21:15:40;;;;;;;;;4.50;4.00;;;;;;;;5035412;27;47705;-77
2021/10/21 21:18:06;;;;;;;;;5.00;4.00;;;;;;;;5033605;27;48564;-77
2021/10/21 21:20:31;;;;;;;;;5.25;4.75;;;;;;;;5043904;27;46040;-76
2021/10/21 21:22:57;;;;;;;;;4.75;4.00;;;;;;;;5040451;27;46502;-77
2021/10/21 21:25:49;;;;;;;;;5.25;3.00;;;;;;;;5080500;27;46450;-77
2021/10/21 21:28:14;;;;;;;;;4.00;3.00;;;;;;;;5084015;27;46047;-77
2021/10/21 21:30:41;;;;;;;;;3.50;3.50;;;;;;;;5091327;27;45527;-76
2021/10/21 21:33:07;;;;;;;;;5.25;4.00;;;;;;;;5078797;27;46028;-77
2021/10/21 21:35:32;;;;;;;;;6.00;4.00;;;;;;;;5090604;27;46149;-76
2021/10/21 21:37:57;;;;;;;;;5.25;4.00;;;;;;;;5090224;27;46187;-77
2021/10/21 21:40:23;;;;;;;;;5.25;4.50;;;;;;;;5085704;27;46182;-77
2021/10/21 21:42:48;;;;;;;;;6.25;4.00;;;;;;;;5090014;27;45608;-77
2021/10/21 21:45:13;;;;;;;;;4.00;4.00;;;;;;;;5079702;27;46484;-77
2021/10/21 21:47:38;;;;;;;;;4.00;3.00;;;;;;;;5086319;27;45608;-76
2021/10/21 21:50:04;;;;;;;;;4.00;3.00;;;;;;;;5089776;27;45879;-77
2021/10/21 21:52:31;;;;;;;;;4.00;4.00;;;;;;;;5084305;27;45931;-76
2021/10/21 21:54:56;;;;;;;;;7.25;6.00;;;;;;;;5086718;27;46428;-76
2021/10/21 21:57:21;;;;;;;;;5.50;3.25;;;;;;;;5086269;27;46556;-76
2021/10/21 21:59:46;;;;;;;;;5.00;5.00;;;;;;;;5082694;27;45790;-76
2021/10/21 22:02:12;;;;;;;;;4.67;4.67;;;;;;;;5084824;27;45609;-77
2021/10/21 22:04:37;;;;;;;;;6.50;4.25;;;;;;;;5084440;27;46531;-76
2021/10/21 22:07:02;;;;;;;;;6.67;6.67;;;;;;;;5084675;27;45498;-76
2021/10/21 22:09:28;;;;;;;;;7.75;6.25;;;;;;;;5088751;27;45798;-76
2021/10/21 22:14:37;;;;;;;;;6.25;6.00;;;;;;;;5088314;27;45530;-76
2021/10/21 22:17:05;;;;;;;;;9.25;8.00;;;;;;;;5089465;27;45980;-76
2021/10/21 22:19:39;;;;;;;;;6.50;6.50;;;;;;;;5087771;27;46101;-76
2021/10/21 22:22:08;;;;;;;;;9.00;6.75;;;;;;;;5089364;27;45566;-76
2021/10/21 22:24:34;;;;;;;;;7.25;5.50;;;;;;;;5090129;27;45956;-76
2021/10/21 22:26:59;;;;;;;;;6.00;6.00;;;;;;;;5090712;27;46004;-76
2021/10/21 22:29:24;;;;;;;;;6.25;6.25;;;;;;;;5165564;22;45576;-93
2021/10/21 22:34:25;;;;;;;;;7.75;6.25;;;;;;;;5038954;22;45604;-77
2021/10/21 22:36:50;;;;;;;;;6.67;6.00;;;;;;;;4982105;28;45431;-77
2021/10/21 22:39:15;;;;;;;;;8.75;7.50;;;;;;;;4979334;28;45631;-77
2021/10/21 22:41:40;;;;;;;;;4.33;3.33;;;;;;;;4983185;28;46372;-77
2021/10/21 22:44:06;;;;;;;;;8.00;6.00;;;;;;;;4986955;28;47408;-77
2021/10/21 22:46:31;;;;;;;;;7.75;6.25;;;;;;;;4988470;28;45609;-77
2021/10/21 22:48:56;;;;;;;;;7.00;6.25;;;;;;;;4983450;28;46270;-77
2021/10/21 22:51:21;;;;;;;;;6.50;5.25;;;;;;;;4980616;28;49977;-77
2021/10/21 22:53:47;;;;;;;;;6.00;6.00;;;;;;;;4977230;28;45610;-77
2021/10/21 22:56:13;;;;;;;;;11.25;7.00;;;;;;;;4983524;28;48287;-77
2021/10/21 22:58:39;;;;;;;;;10.25;7.50;;;;;;;;4984746;28;46252;-79
2021/10/21 23:01:06;;;;;;;;;7.00;7.00;;;;;;;;4987331;28;45698;-79
2021/10/21 23:03:32;;;;;;;;;10.00;10.00;;;;;;;;4980687;28;48514;-79
2021/10/21 23:05:59;;;;;;;;;10.00;7.00;;;;;;;;4978536;28;45643;-78
2021/10/21 23:08:24;;;;;;;;;7.50;7.50;;;;;;;;4986055;28;45631;-79
2021/10/21 23:10:49;;;;;;;;;7.00;5.33;;;;;;;;4982210;28;46137;-78
2021/10/21 23:13:15;;;;;;;;;7.00;7.00;;;;;;;;4982903;28;45725;-78
2021/10/21 23:15:41;;;;;;;;;8.50;7.25;;;;;;;;4983139;28;45628;-78
2021/10/21 23:18:07;;;;;;;;;10.00;8.00;;;;;;;;4985485;28;45679;-78
2021/10/21 23:20:33;;;;;;;;;7.25;7.00;;;;;;;;4986201;28;45612;-78
2021/10/21 23:23:00;;;;;;;;;11.00;8.50;;;;;;;;4983436;28;46212;-78
2021/10/21 23:25:26;;;;;;;;;14.75;10.00;;;;;;;;4968950;28;45832;-78
2021/10/21 23:27:51;;;;;;;;;12.25;11.75;;;;;;;;4965426;28;45933;-79
2021/10/21 23:30:17;;;;;;;;;10.75;10.00;;;;;;;;4966425;28;47917;-78
2021/10/21 23:32:42;;;;;;;;;10.00;10.00;;;;;;;;4970058;28;46394;-78
2021/10/21 23:35:07;;;;;;;;;11.00;11.00;;;;;;;;4970036;28;45630;-78
2021/10/21 23:37:32;;;;;;;;;8.25;6.25;;;;;;;;4976546;28;45626;-78
2021/10/21 23:39:58;;;;;;;;;7.67;6.33;;;;;;;;4976686;28;45733;-78
2021/10/21 23:42:23;;;;;;;;;10.00;6.00;;;;;;;;5014737;22;45464;-94
2021/10/21 23:44:48;;;;;;;;;9.00;7.00;;;;;;;;4995192;28;45777;-94
2021/10/21 23:47:13;;;;;;;;;9.75;7.75;;;;;;;;4998645;28;45541;-95
2021/10/21 23:49:39;;;;;;;;;6.75;6.00;;;;;;;;4993071;28;45615;-95
2021/10/21 23:52:04;;;;;;;;;7.50;5.75;;;;;;;;4994169;28;45643;-95
2021/10/21 23:54:30;;;;;;;;;5.50;5.50;;;;;;;;4996033;28;45588;-95
2021/10/21 23:56:56;;;;;;;;;11.00;7.67;;;;;;;;5002367;28;45631;-94
2021/10/21 23:59:21;;;;;;;;;9.25;5.75;;;;;;;;4998389;28;45530;-95
